sensor_id;sensor_type;location;lat;lon;timestamp;pressure;altitude;pressure_sealevel;temperature;humidity
40490;BME280;26196;52.302;10.572;2023-04-20T00:02:50;101163.50;;;14.28;42.38
40490;BME280;26196;52.302;10.572;2023-04-20T00:06:50;101144.25;;;14.26;41.71
40490;BME280;26196;52.302;10.572;2023-04-20T00:10:52;101150.41;;;14.26;42.03
40490;BME280;26196;52.302;10.572;2023-04-20T00:14:53;101142.56;;;14.23;42.23
40490;BME280;26196;52.302;10.572;2023-04-20T00:18:53;101140.16;;;14.17;42.08
40490;BME280;26196;52.302;10.572;2023-04-20T00:22:53;101136.53;;;14.21;42.12
40490;BME280;26196;52.302;10.572;2023-04-20T00:26:54;101133.97;;;14.18;41.96
40490;BME280;26196;52.302;10.572;2023-04-20T00:30:55;101130.53;;;14.16;41.87
40490;BME280;26196;52.302;10.572;2023-04-20T00:34:56;101126.25;;;14.13;42.22
40490;BME280;26196;52.302;10.572;2023-04-20T00:38:58;101119.34;;;14.09;42.39
40490;BME280;26196;52.302;10.572;2023-04-20T00:43:32;101123.63;;;14.12;42.11
40490;BME280;26196;52.302;10.572;2023-04-20T00:47:32;101112.28;;;14.10;42.63
40490;BME280;26196;52.302;10.572;2023-04-20T00:51:33;101108.00;;;14.07;42.55
40490;BME280;26196;52.302;10.572;2023-04-20T00:55:36;101107.25;;;14.04;42.55
40490;BME280;26196;52.302;10.572;2023-04-20T01:00:11;101101.97;;;14.04;42.11
40490;BME280;26196;52.302;10.572;2023-04-20T01:04:12;101088.00;;;14.01;42.18
40490;BME280;26196;52.302;10.572;2023-04-20T01:08:12;101081.97;;;13.98;43.03
40490;BME280;26196;52.302;10.572;2023-04-20T01:12:12;101081.91;;;13.99;42.49
40490;BME280;26196;52.302;10.572;2023-04-20T01:16:13;101084.53;;;13.99;42.54
40490;BME280;26196;52.302;10.572;2023-04-20T01:20:50;101078.50;;;13.97;42.37
40490;BME280;26196;52.302;10.572;2023-04-20T01:24:51;101085.56;;;13.95;42.48
40490;BME280;26196;52.302;10.572;2023-04-20T01:28:51;101078.50;;;13.97;42.35
40490;BME280;26196;52.302;10.572;2023-04-20T01:32:52;101076.81;;;13.95;42.84
40490;BME280;26196;52.302;10.572;2023-04-20T01:36:52;101077.66;;;13.95;42.58
40490;BME280;26196;52.302;10.572;2023-04-20T01:40:53;101080.34;;;13.94;42.82
40490;BME280;26196;52.302;10.572;2023-04-20T01:44:54;101062.78;;;13.94;42.82
40490;BME280;26196;52.302;10.572;2023-04-20T01:48:54;101059.50;;;13.88;42.75
40490;BME280;26196;52.302;10.572;2023-04-20T01:52:55;101069.94;;;13.89;43.06
40490;BME280;26196;52.302;10.572;2023-04-20T01:57:32;101060.25;;;13.91;43.14
40490;BME280;26196;52.302;10.572;2023-04-20T02:01:32;101062.06;;;13.89;42.59
40490;BME280;26196;52.302;10.572;2023-04-20T02:06:07;101058.53;;;13.90;42.82
40490;BME280;26196;52.302;10.572;2023-04-20T02:10:07;101050.69;;;13.89;42.82
40490;BME280;26196;52.302;10.572;2023-04-20T02:14:07;101032.56;;;13.79;42.66
40490;BME280;26196;52.302;10.572;2023-04-20T02:18:08;101046.47;;;13.83;42.74
40490;BME280;26196;52.302;10.572;2023-04-20T02:22:45;101053.53;;;13.83;42.83
40490;BME280;26196;52.302;10.572;2023-04-20T02:26:46;101047.41;;;13.82;42.96
40490;BME280;26196;52.302;10.572;2023-04-20T02:30:46;101046.47;;;13.83;43.00
40490;BME280;26196;52.302;10.572;2023-04-20T02:35:21;101053.44;;;13.84;42.80
40490;BME280;26196;52.302;10.572;2023-04-20T02:39:21;101044.78;;;13.82;42.72
40490;BME280;26196;52.302;10.572;2023-04-20T02:43:21;101048.25;;;13.83;42.73
40490;BME280;26196;52.302;10.572;2023-04-20T02:47:22;101051.84;;;13.80;42.62
40490;BME280;26196;52.302;10.572;2023-04-20T02:51:57;101050.06;;;13.81;42.72
40490;BME280;26196;52.302;10.572;2023-04-20T02:55:57;101049.97;;;13.84;42.77
40490;BME280;26196;52.302;10.572;2023-04-20T03:00:34;101043.00;;;13.83;43.03
40490;BME280;26196;52.302;10.572;2023-04-20T03:04:34;101046.47;;;13.83;43.18
40490;BME280;26196;52.302;10.572;2023-04-20T03:08:35;101054.50;;;13.78;43.34
40490;BME280;26196;52.302;10.572;2023-04-20T03:12:36;101046.59;;;13.80;43.04
40490;BME280;26196;52.302;10.572;2023-04-20T03:16:36;101042.22;;;13.79;43.20
40490;BME280;26196;52.302;10.572;2023-04-20T03:20:36;101052.72;;;13.79;43.49
40490;BME280;26196;52.302;10.572;2023-04-20T03:24:37;101047.47;;;13.79;43.38
40490;BME280;26196;52.302;10.572;2023-04-20T03:29:14;101048.41;;;13.78;43.50
40490;BME280;26196;52.302;10.572;2023-04-20T03:33:15;101044.91;;;13.77;43.17
40490;BME280;26196;52.302;10.572;2023-04-20T03:37:15;101050.09;;;13.79;43.23
40490;BME280;26196;52.302;10.572;2023-04-20T03:41:15;101056.34;;;13.76;43.53
40490;BME280;26196;52.302;10.572;2023-04-20T03:45:50;101057.09;;;13.80;43.12
40490;BME280;26196;52.302;10.572;2023-04-20T03:50:25;101054.34;;;13.85;43.61
40490;BME280;26196;52.302;10.572;2023-04-20T03:55:02;101043.09;;;13.79;43.81
40490;BME280;26196;52.302;10.572;2023-04-20T03:59:03;101047.56;;;13.76;43.32
40490;BME280;26196;52.302;10.572;2023-04-20T04:03:03;101040.59;;;13.75;43.39
40490;BME280;26196;52.302;10.572;2023-04-20T04:07:38;101056.28;;;13.78;43.77
40490;BME280;26196;52.302;10.572;2023-04-20T04:11:38;101047.66;;;13.74;43.40
40490;BME280;26196;52.302;10.572;2023-04-20T04:15:38;101046.00;;;13.70;43.99
40490;BME280;26196;52.302;10.572;2023-04-20T04:19:39;101053.88;;;13.72;43.65
40490;BME280;26196;52.302;10.572;2023-04-20T04:23:39;101051.22;;;13.72;43.51
40490;BME280;26196;52.302;10.572;2023-04-20T04:27:42;101043.34;;;13.72;43.81
40490;BME280;26196;52.302;10.572;2023-04-20T04:31:42;101046.84;;;13.71;44.19
40490;BME280;26196;52.302;10.572;2023-04-20T04:35:43;101050.31;;;13.73;43.98
40490;BME280;26196;52.302;10.572;2023-04-20T04:40:18;101048.53;;;13.73;43.59
40490;BME280;26196;52.302;10.572;2023-04-20T04:44:19;101052.91;;;13.74;43.93
40490;BME280;26196;52.302;10.572;2023-04-20T04:48:20;101056.44;;;13.73;44.19
40490;BME280;26196;52.302;10.572;2023-04-20T04:52:21;101059.03;;;13.75;44.22
40490;BME280;26196;52.302;10.572;2023-04-20T04:56:59;101055.09;;;13.88;44.36
40490;BME280;26196;52.302;10.572;2023-04-20T05:01:33;101055.06;;;13.90;44.53
40490;BME280;26196;52.302;10.572;2023-04-20T05:10:45;101062.38;;;13.80;44.49
40490;BME280;26196;52.302;10.572;2023-04-20T05:14:46;101055.19;;;13.85;43.85
40490;BME280;26196;52.302;10.572;2023-04-20T05:19:21;101067.38;;;13.88;44.00
40490;BME280;26196;52.302;10.572;2023-04-20T05:23:55;101073.38;;;13.93;44.29
40490;BME280;26196;52.302;10.572;2023-04-20T05:27:55;101071.47;;;13.96;44.32
40490;BME280;26196;52.302;10.572;2023-04-20T05:32:33;101082.84;;;13.98;43.87
40490;BME280;26196;52.302;10.572;2023-04-20T05:36:33;101076.66;;;13.99;44.12
40490;BME280;26196;52.302;10.572;2023-04-20T05:41:10;101086.31;;;13.99;44.28
40490;BME280;26196;52.302;10.572;2023-04-20T05:45:11;101091.53;;;14.00;44.89
40490;BME280;26196;52.302;10.572;2023-04-20T05:49:11;101094.19;;;14.00;44.63
40490;BME280;26196;52.302;10.572;2023-04-20T05:57:50;101099.34;;;14.04;44.79
40490;BME280;26196;52.302;10.572;2023-04-20T06:02:24;101096.50;;;14.10;44.79
40490;BME280;26196;52.302;10.572;2023-04-20T06:07:02;101103.50;;;14.11;44.59
40490;BME280;26196;52.302;10.572;2023-04-20T06:11:02;101102.63;;;14.10;45.15
40490;BME280;26196;52.302;10.572;2023-04-20T06:15:03;101095.84;;;14.03;44.80
40490;BME280;26196;52.302;10.572;2023-04-20T06:19:08;101102.06;;;14.00;44.87
40490;BME280;26196;52.302;10.572;2023-04-20T06:23:09;101102.25;;;13.94;44.81
40490;BME280;26196;52.302;10.572;2023-04-20T06:27:10;101098.88;;;13.91;44.70
40490;BME280;26196;52.302;10.572;2023-04-20T06:31:44;101095.38;;;13.90;44.56
40490;BME280;26196;52.302;10.572;2023-04-20T06:35:44;101093.75;;;13.86;44.68
40490;BME280;26196;52.302;10.572;2023-04-20T06:39:45;101087.66;;;13.84;44.92
40490;BME280;26196;52.302;10.572;2023-04-20T06:43:45;101089.44;;;13.84;45.33
40490;BME280;26196;52.302;10.572;2023-04-20T06:48:23;101100.03;;;13.82;44.85
40490;BME280;26196;52.302;10.572;2023-04-20T07:02:20;101116.69;;;13.81;45.15
40490;BME280;26196;52.302;10.572;2023-04-20T07:06:55;101117.72;;;13.77;45.81
40490;BME280;26196;52.302;10.572;2023-04-20T07:11:32;101117.09;;;13.69;45.18
40490;BME280;26196;52.302;10.572;2023-04-20T07:16:10;101120.72;;;13.65;45.14
40490;BME280;26196;52.302;10.572;2023-04-20T07:25:08;101112.00;;;13.63;45.61
40490;BME280;26196;52.302;10.572;2023-04-20T07:29:43;101120.72;;;13.65;46.06
40490;BME280;26196;52.302;10.572;2023-04-20T07:38:39;101129.31;;;13.71;45.79
40490;BME280;26196;52.302;10.572;2023-04-20T07:42:39;101125.88;;;13.68;46.91
40490;BME280;26196;52.302;10.572;2023-04-20T07:47:14;101131.16;;;13.68;46.44
40490;BME280;26196;52.302;10.572;2023-04-20T07:51:15;101132.19;;;13.62;46.88
40490;BME280;26196;52.302;10.572;2023-04-20T07:55:15;101137.66;;;13.56;46.71
40490;BME280;26196;52.302;10.572;2023-04-20T07:59:50;101142.03;;;13.55;47.03
40490;BME280;26196;52.302;10.572;2023-04-20T08:03:51;101149.03;;;13.56;47.12
40490;BME280;26196;52.302;10.572;2023-04-20T08:08:25;101140.41;;;13.51;47.00
40490;BME280;26196;52.302;10.572;2023-04-20T08:12:25;101147.47;;;13.49;46.97
40490;BME280;26196;52.302;10.572;2023-04-20T08:16:26;101151.75;;;13.53;47.04
40490;BME280;26196;52.302;10.572;2023-04-20T08:21:00;101145.56;;;13.54;47.69
40490;BME280;26196;52.302;10.572;2023-04-20T08:25:01;101141.03;;;13.60;47.49
40490;BME280;26196;52.302;10.572;2023-04-20T08:29:02;101138.41;;;13.60;47.03
40490;BME280;26196;52.302;10.572;2023-04-20T08:33:02;101141.84;;;13.62;47.39
40490;BME280;26196;52.302;10.572;2023-04-20T08:41:59;101138.59;;;13.53;48.22
40490;BME280;26196;52.302;10.572;2023-04-20T08:46:01;101137.72;;;13.53;48.34
40490;BME280;26196;52.302;10.572;2023-04-20T08:50:35;101138.69;;;13.50;48.83
40490;BME280;26196;52.302;10.572;2023-04-20T08:54:40;101147.47;;;13.49;48.61
40490;BME280;26196;52.302;10.572;2023-04-20T08:58:41;101137.03;;;13.46;48.61
40490;BME280;26196;52.302;10.572;2023-04-20T09:03:15;101147.44;;;13.51;49.07
40490;BME280;26196;52.302;10.572;2023-04-20T09:07:20;101143.03;;;13.51;48.83
40490;BME280;26196;52.302;10.572;2023-04-20T09:11:25;101140.44;;;13.50;49.04
40490;BME280;26196;52.302;10.572;2023-04-20T09:20:33;101138.94;;;13.41;49.42
40490;BME280;26196;52.302;10.572;2023-04-20T09:24:36;101146.84;;;13.41;49.38
40490;BME280;26196;52.302;10.572;2023-04-20T09:28:37;101155.69;;;13.39;49.36
40490;BME280;26196;52.302;10.572;2023-04-20T09:32:38;101158.22;;;13.42;48.43
40490;BME280;26196;52.302;10.572;2023-04-20T09:36:40;101150.50;;;13.35;49.16
40490;BME280;26196;52.302;10.572;2023-04-20T09:40:41;101157.53;;;13.35;49.59
40490;BME280;26196;52.302;10.572;2023-04-20T09:49:19;101169.78;;;13.36;49.34
40490;BME280;26196;52.302;10.572;2023-04-20T09:53:20;101160.06;;;13.38;48.67
40490;BME280;26196;52.302;10.572;2023-04-20T09:57:55;101155.69;;;13.37;49.40
40490;BME280;26196;52.302;10.572;2023-04-20T10:01:55;101157.53;;;13.35;49.46
40490;BME280;26196;52.302;10.572;2023-04-20T10:05:56;101149.59;;;13.37;49.20
40490;BME280;26196;52.302;10.572;2023-04-20T10:14:33;101138.41;;;13.30;50.12
40490;BME280;26196;52.302;10.572;2023-04-20T10:18:34;101138.34;;;13.31;49.48
40490;BME280;26196;52.302;10.572;2023-04-20T10:22:35;101141.88;;;13.30;49.80
40490;BME280;26196;52.302;10.572;2023-04-20T10:31:14;101161.19;;;13.29;50.00
40490;BME280;26196;52.302;10.572;2023-04-20T10:35:15;101151.53;;;13.30;49.93
40490;BME280;26196;52.302;10.572;2023-04-20T10:39:53;101150.66;;;13.29;50.46
40490;BME280;26196;52.302;10.572;2023-04-20T10:43:54;101150.59;;;13.32;49.52
40490;BME280;26196;52.302;10.572;2023-04-20T10:48:28;101149.56;;;13.38;49.70
40490;BME280;26196;52.302;10.572;2023-04-20T10:52:33;101134.81;;;13.32;49.93
40490;BME280;26196;52.302;10.572;2023-04-20T10:57:14;101123.25;;;13.38;49.17
40490;BME280;26196;52.302;10.572;2023-04-20T11:01:15;101127.69;;;13.36;49.34
40490;BME280;26196;52.302;10.572;2023-04-20T11:05:16;101123.16;;;13.41;49.12
40490;BME280;26196;52.302;10.572;2023-04-20T11:09:22;101118.66;;;13.45;48.37
40490;BME280;26196;52.302;10.572;2023-04-20T11:13:25;101120.34;;;13.47;48.66
40490;BME280;26196;52.302;10.572;2023-04-20T11:22:22;101107.81;;;13.55;48.92
40490;BME280;26196;52.302;10.572;2023-04-20T11:26:33;101113.91;;;13.57;49.34
40490;BME280;26196;52.302;10.572;2023-04-20T11:30:59;101114.75;;;13.58;48.69
40490;BME280;26196;52.302;10.572;2023-04-20T11:35:02;101116.38;;;13.64;48.80
40490;BME280;26196;52.302;10.572;2023-04-20T11:39:07;101100.59;;;13.64;47.98
40490;BME280;26196;52.302;10.572;2023-04-20T11:43:08;101100.44;;;13.68;48.72
40490;BME280;26196;52.302;10.572;2023-04-20T11:47:08;101099.47;;;13.71;48.24
40490;BME280;26196;52.302;10.572;2023-04-20T11:51:09;101092.41;;;13.73;47.55
40490;BME280;26196;52.302;10.572;2023-04-20T11:55:09;101093.22;;;13.75;48.21
40490;BME280;26196;52.302;10.572;2023-04-20T11:59:44;101098.34;;;13.79;47.97
40490;BME280;26196;52.302;10.572;2023-04-20T12:03:47;101086.88;;;13.82;48.25
40490;BME280;26196;52.302;10.572;2023-04-20T12:07:47;101085.94;;;13.83;48.19
40490;BME280;26196;52.302;10.572;2023-04-20T12:11:48;101085.03;;;13.84;47.86
40490;BME280;26196;52.302;10.572;2023-04-20T12:16:23;101082.34;;;13.86;47.66
40490;BME280;26196;52.302;10.572;2023-04-20T12:20:23;101091.94;;;13.88;48.00
40490;BME280;26196;52.302;10.572;2023-04-20T12:24:24;101085.75;;;13.89;47.89
40490;BME280;26196;52.302;10.572;2023-04-20T12:28:58;101083.13;;;13.89;47.19
40490;BME280;26196;52.302;10.572;2023-04-20T12:32:59;101079.69;;;13.87;47.76
40490;BME280;26196;52.302;10.572;2023-04-20T12:36:59;101081.28;;;13.91;47.32
40490;BME280;26196;52.302;10.572;2023-04-20T12:41:37;101078.66;;;13.91;47.78
40490;BME280;26196;52.302;10.572;2023-04-20T12:45:37;101076.03;;;13.91;46.83
40490;BME280;26196;52.302;10.572;2023-04-20T12:49:38;101081.19;;;13.94;47.24
40490;BME280;26196;52.302;10.572;2023-04-20T12:53:38;101077.66;;;13.95;47.35
40490;BME280;26196;52.302;10.572;2023-04-20T13:02:17;101063.50;;;13.99;47.16
40490;BME280;26196;52.302;10.572;2023-04-20T13:06:51;101067.91;;;13.99;46.88
40490;BME280;26196;52.302;10.572;2023-04-20T13:11:29;101060.06;;;13.97;46.87
40490;BME280;26196;52.302;10.572;2023-04-20T13:16:06;101060.06;;;13.97;47.02
40490;BME280;26196;52.302;10.572;2023-04-20T13:20:07;101062.75;;;13.96;46.23
40490;BME280;26196;52.302;10.572;2023-04-20T13:24:42;101066.38;;;13.92;45.63
40490;BME280;26196;52.302;10.572;2023-04-20T13:28:42;101068.09;;;13.93;46.18
40490;BME280;26196;52.302;10.572;2023-04-20T13:33:17;101063.69;;;13.93;46.05
40490;BME280;26196;52.302;10.572;2023-04-20T13:42:14;101061.09;;;13.92;46.15
40490;BME280;26196;52.302;10.572;2023-04-20T13:46:15;101065.66;;;13.87;45.72
40490;BME280;26196;52.302;10.572;2023-04-20T13:50:49;101064.69;;;13.89;45.99
40490;BME280;26196;52.302;10.572;2023-04-20T13:54:50;101070.88;;;13.88;45.92
40490;BME280;26196;52.302;10.572;2023-04-20T13:59:27;101066.53;;;13.87;45.75
40490;BME280;26196;52.302;10.572;2023-04-20T14:04:02;101067.44;;;13.86;45.68
40490;BME280;26196;52.302;10.572;2023-04-20T14:08:02;101065.63;;;13.88;45.44
40490;BME280;26196;52.302;10.572;2023-04-20T14:12:03;101069.09;;;13.89;46.00
40490;BME280;26196;52.302;10.572;2023-04-20T14:16:41;101067.44;;;13.86;45.59
40490;BME280;26196;52.302;10.572;2023-04-20T14:20:42;101068.25;;;13.88;45.36
40490;BME280;26196;52.302;10.572;2023-04-20T14:25:20;101070.88;;;13.88;45.93
40490;BME280;26196;52.302;10.572;2023-04-20T14:33:57;101067.44;;;13.86;46.14
40490;BME280;26196;52.302;10.572;2023-04-20T14:37:58;101059.66;;;13.82;45.70
40490;BME280;26196;52.302;10.572;2023-04-20T14:41:58;101051.75;;;13.83;46.13
40490;BME280;26196;52.302;10.572;2023-04-20T14:46:32;101053.56;;;13.81;46.58
40490;BME280;26196;52.302;10.572;2023-04-20T14:50:33;101057.97;;;13.81;46.74
40490;BME280;26196;52.302;10.572;2023-04-20T14:55:07;101055.38;;;13.79;46.55
40490;BME280;26196;52.302;10.572;2023-04-20T14:59:08;101056.09;;;13.84;46.66
40490;BME280;26196;52.302;10.572;2023-04-20T15:03:45;101053.38;;;13.87;46.82
40490;BME280;26196;52.302;10.572;2023-04-20T15:08:23;101049.78;;;13.90;46.44
40490;BME280;26196;52.302;10.572;2023-04-20T15:13:00;101048.00;;;13.90;46.90
40490;BME280;26196;52.302;10.572;2023-04-20T15:21:37;101033.81;;;13.94;47.11
40490;BME280;26196;52.302;10.572;2023-04-20T15:25:38;101018.03;;;13.94;46.98
40490;BME280;26196;52.302;10.572;2023-04-20T15:30:15;101016.13;;;13.99;47.81
40490;BME280;26196;52.302;10.572;2023-04-20T15:34:53;101017.00;;;14.00;47.82
40490;BME280;26196;52.302;10.572;2023-04-20T15:39:30;101009.88;;;14.02;47.17
40490;BME280;26196;52.302;10.572;2023-04-20T15:43:30;101015.16;;;14.02;47.86
40490;BME280;26196;52.302;10.572;2023-04-20T15:48:08;101018.59;;;14.04;47.49
40490;BME280;26196;52.302;10.572;2023-04-20T15:52:45;101024.72;;;14.05;47.49
40490;BME280;26196;52.302;10.572;2023-04-20T15:57:22;101023.00;;;14.04;48.13
40490;BME280;26196;52.302;10.572;2023-04-20T16:02:00;101028.22;;;14.05;47.53
40490;BME280;26196;52.302;10.572;2023-04-20T16:06:34;101027.31;;;14.06;48.11
40490;BME280;26196;52.302;10.572;2023-04-20T16:11:10;101022.91;;;14.07;48.32
40490;BME280;26196;52.302;10.572;2023-04-20T16:15:10;101007.19;;;14.05;47.77
40490;BME280;26196;52.302;10.572;2023-04-20T16:19:11;100990.50;;;14.05;48.07
40490;BME280;26196;52.302;10.572;2023-04-20T16:23:51;100992.16;;;14.07;48.14
40490;BME280;26196;52.302;10.572;2023-04-20T16:28:23;100990.34;;;14.09;48.44
40490;BME280;26196;52.302;10.572;2023-04-20T16:33:00;100984.22;;;14.09;48.52
40490;BME280;26196;52.302;10.572;2023-04-20T16:41:58;100969.41;;;14.06;48.50
40490;BME280;26196;52.302;10.572;2023-04-20T16:45:58;100976.44;;;14.06;48.35
40490;BME280;26196;52.302;10.572;2023-04-20T16:50:33;100968.53;;;14.06;48.35
40490;BME280;26196;52.302;10.572;2023-04-20T16:55:08;100965.84;;;14.07;47.81
40490;BME280;26196;52.302;10.572;2023-04-20T16:59:09;100966.81;;;14.05;48.40
40490;BME280;26196;52.302;10.572;2023-04-20T17:03:46;100966.81;;;14.05;48.51
40490;BME280;26196;52.302;10.572;2023-04-20T17:12:44;100974.66;;;14.06;49.45
40490;BME280;26196;52.302;10.572;2023-04-20T17:17:18;100972.84;;;14.08;48.46
40490;BME280;26196;52.302;10.572;2023-04-20T17:21:18;100978.91;;;14.10;48.00
40490;BME280;26196;52.302;10.572;2023-04-20T17:25:19;100982.31;;;14.14;48.76
40490;BME280;26196;52.302;10.572;2023-04-20T17:29:56;100988.38;;;14.16;48.14
40490;BME280;26196;52.302;10.572;2023-04-20T17:33:57;100983.00;;;14.19;48.68
40490;BME280;26196;52.302;10.572;2023-04-20T17:38:34;100988.28;;;14.19;48.45
40490;BME280;26196;52.302;10.572;2023-04-20T17:43:11;100979.41;;;14.21;48.33
40490;BME280;26196;52.302;10.572;2023-04-20T17:47:48;100974.13;;;14.21;48.76
40490;BME280;26196;52.302;10.572;2023-04-20T17:56:58;100986.34;;;14.24;48.91
40490;BME280;26196;52.302;10.572;2023-04-20T18:01:36;100987.31;;;14.21;48.57
40490;BME280;26196;52.302;10.572;2023-04-20T18:06:13;100996.03;;;14.23;48.90
40490;BME280;26196;52.302;10.572;2023-04-20T18:15:11;100993.31;;;14.25;48.55
40490;BME280;26196;52.302;10.572;2023-04-20T18:19:45;101002.94;;;14.26;48.83
40490;BME280;26196;52.302;10.572;2023-04-20T18:24:22;101003.84;;;14.25;48.99
40490;BME280;26196;52.302;10.572;2023-04-20T18:33:37;101003.81;;;14.27;49.14
40490;BME280;26196;52.302;10.572;2023-04-20T18:38:11;101009.22;;;14.22;48.74
40490;BME280;26196;52.302;10.572;2023-04-20T18:42:48;101003.03;;;14.23;49.22
40490;BME280;26196;52.302;10.572;2023-04-20T18:47:23;101006.47;;;14.25;49.23
40490;BME280;26196;52.302;10.572;2023-04-20T18:52:01;101012.66;;;14.24;48.72
40490;BME280;26196;52.302;10.572;2023-04-20T18:56:38;101001.31;;;14.22;49.61
40490;BME280;26196;52.302;10.572;2023-04-20T19:00:39;100994.28;;;14.22;49.12
40490;BME280;26196;52.302;10.572;2023-04-20T19:04:40;100996.97;;;14.21;49.61
40490;BME280;26196;52.302;10.572;2023-04-20T19:08:40;100997.75;;;14.23;49.11
40490;BME280;26196;52.302;10.572;2023-04-20T19:17:55;101006.56;;;14.23;49.01
40490;BME280;26196;52.302;10.572;2023-04-20T19:27:07;100996.88;;;14.24;49.31
40490;BME280;26196;52.302;10.572;2023-04-20T19:31:42;100984.72;;;14.20;49.31
40490;BME280;26196;52.302;10.572;2023-04-20T19:35:42;100976.81;;;14.20;49.37
40490;BME280;26196;52.302;10.572;2023-04-20T19:40:18;100985.53;;;14.22;49.01
40490;BME280;26196;52.302;10.572;2023-04-20T19:44:55;100979.53;;;14.18;48.99
40490;BME280;26196;52.302;10.572;2023-04-20T19:49:32;100973.28;;;14.21;48.95
40490;BME280;26196;52.302;10.572;2023-04-20T19:54:07;100970.69;;;14.19;49.09
40490;BME280;26196;52.302;10.572;2023-04-20T19:58:45;100973.28;;;14.21;48.99
40490;BME280;26196;52.302;10.572;2023-04-20T20:02:45;100974.19;;;14.20;48.99
40490;BME280;26196;52.302;10.572;2023-04-20T20:06:45;100971.66;;;14.17;49.33
40490;BME280;26196;52.302;10.572;2023-04-20T20:10:49;100969.00;;;14.18;48.71
40490;BME280;26196;52.302;10.572;2023-04-20T20:14:50;100975.22;;;14.16;49.00
40490;BME280;26196;52.302;10.572;2023-04-20T20:18:50;100972.50;;;14.17;48.85
40490;BME280;26196;52.302;10.572;2023-04-20T20:22:51;100967.31;;;14.16;49.02
40490;BME280;26196;52.302;10.572;2023-04-20T20:26:51;100965.53;;;14.16;48.21
40490;BME280;26196;52.302;10.572;2023-04-20T20:31:28;100948.97;;;14.13;48.11
40490;BME280;26196;52.302;10.572;2023-04-20T20:35:29;100950.81;;;14.11;48.34
40490;BME280;26196;52.302;10.572;2023-04-20T20:39:30;100948.13;;;14.12;48.35
40490;BME280;26196;52.302;10.572;2023-04-20T20:43:31;100944.63;;;14.12;48.07
40490;BME280;26196;52.302;10.572;2023-04-20T20:47:32;100949.94;;;14.10;47.92
40490;BME280;26196;52.302;10.572;2023-04-20T20:51:33;100937.66;;;14.11;48.23
40490;BME280;26196;52.302;10.572;2023-04-20T20:56:10;100942.97;;;14.09;47.66
40490;BME280;26196;52.302;10.572;2023-04-20T21:00:11;100933.41;;;14.07;47.71
40490;BME280;26196;52.302;10.572;2023-04-20T21:04:12;100935.06;;;14.09;47.50
40490;BME280;26196;52.302;10.572;2023-04-20T21:08:13;100936.09;;;14.05;47.75
40490;BME280;26196;52.302;10.572;2023-04-20T21:12:13;100936.03;;;14.07;47.66
40490;BME280;26196;52.302;10.572;2023-04-20T21:16:51;100939.63;;;14.04;47.14
40490;BME280;26196;52.302;10.572;2023-04-20T21:20:51;100929.22;;;14.01;47.41
40490;BME280;26196;52.302;10.572;2023-04-20T21:25:29;100938.78;;;14.04;47.16
40490;BME280;26196;52.302;10.572;2023-04-20T21:29:29;100933.63;;;14.00;47.27
40490;BME280;26196;52.302;10.572;2023-04-20T21:33:32;100939.78;;;13.99;47.33
40490;BME280;26196;52.302;10.572;2023-04-20T21:42:29;100943.34;;;13.98;47.20
40490;BME280;26196;52.302;10.572;2023-04-20T21:51:04;100930.22;;;13.97;47.00
40490;BME280;26196;52.302;10.572;2023-04-20T21:55:05;100932.84;;;13.97;46.92
40490;BME280;26196;52.302;10.572;2023-04-20T21:59:40;100935.56;;;13.95;46.95
40490;BME280;26196;52.302;10.572;2023-04-20T22:03:40;100939.09;;;13.94;46.88
40490;BME280;26196;52.302;10.572;2023-04-20T22:07:40;100925.13;;;13.92;46.89
40490;BME280;26196;52.302;10.572;2023-04-20T22:11:41;100933.88;;;13.93;46.82
40490;BME280;26196;52.302;10.572;2023-04-20T22:15:42;100937.38;;;13.93;46.65
40490;BME280;26196;52.302;10.572;2023-04-20T22:19:42;100935.59;;;13.94;46.21
40490;BME280;26196;52.302;10.572;2023-04-20T22:23:42;100931.28;;;13.91;46.67
40490;BME280;26196;52.302;10.572;2023-04-20T22:27:43;100932.34;;;13.87;46.32
40490;BME280;26196;52.302;10.572;2023-04-20T22:31:43;100933.13;;;13.89;46.51
40490;BME280;26196;52.302;10.572;2023-04-20T22:36:18;100922.56;;;13.91;46.83
40490;BME280;26196;52.302;10.572;2023-04-20T22:40:19;100928.78;;;13.88;46.22
40490;BME280;26196;52.302;10.572;2023-04-20T22:44:19;100927.00;;;13.89;46.78
40490;BME280;26196;52.302;10.572;2023-04-20T22:48:57;100934.03;;;13.88;46.45
40490;BME280;26196;52.302;10.572;2023-04-20T22:52:58;100926.19;;;13.87;46.70
40490;BME280;26196;52.302;10.572;2023-04-20T22:56:58;100922.00;;;13.81;46.47
40490;BME280;26196;52.302;10.572;2023-04-20T23:01:36;100934.16;;;13.85;46.16
40490;BME280;26196;52.302;10.572;2023-04-20T23:05:36;100929.78;;;13.84;46.39
40490;BME280;26196;52.302;10.572;2023-04-20T23:09:38;100935.97;;;13.83;46.13
40490;BME280;26196;52.302;10.572;2023-04-20T23:13:41;100922.81;;;13.83;46.28
40490;BME280;26196;52.302;10.572;2023-04-20T23:17:42;100918.47;;;13.82;46.42
40490;BME280;26196;52.302;10.572;2023-04-20T23:22:19;100927.25;;;13.81;46.04
40490;BME280;26196;52.302;10.572;2023-04-20T23:26:20;100921.19;;;13.79;46.56
40490;BME280;26196;52.302;10.572;2023-04-20T23:30:20;100932.63;;;13.78;46.21
40490;BME280;26196;52.302;10.572;2023-04-20T23:34:20;100921.13;;;13.81;46.29
40490;BME280;26196;52.302;10.572;2023-04-20T23:38:21;100922.09;;;13.78;46.64
40490;BME280;26196;52.302;10.572;2023-04-20T23:42:21;100916.94;;;13.75;46.30
40490;BME280;26196;52.302;10.572;2023-04-20T23:51:00;100911.69;;;13.75;46.44